sensor_id;sensor_type;location;lat;lon;timestamp;P1;durP1;ratioP1;P2;durP2;ratioP2
58864;SDS011;45702;52.982;6.658;2024-02-28T00:00:05;298.63;;;40.97;;
58864;SDS011;45702;52.982;6.658;2024-02-28T00:02:31;270.60;;;39.80;;
58864;SDS011;45702;52.982;6.658;2024-02-28T00:04:57;224.75;;;39.75;;
58864;SDS011;45702;52.982;6.658;2024-02-28T00:07:24;266.00;;;38.75;;
58864;SDS011;45702;52.982;6.658;2024-02-28T00:09:50;294.38;;;39.25;;
58864;SDS011;45702;52.982;6.658;2024-02-28T00:12:16;254.05;;;40.25;;
58864;SDS011;45702;52.982;6.658;2024-02-28T00:14:42;232.77;;;39.30;;
58864;SDS011;45702;52.982;6.658;2024-02-28T00:17:08;233.25;;;34.60;;
58864;SDS011;45702;52.982;6.658;2024-02-28T00:19:35;270.60;;;41.88;;
58864;SDS011;45702;52.982;6.658;2024-02-28T00:22:01;239.70;;;39.28;;
58864;SDS011;45702;52.982;6.658;2024-02-28T00:24:27;285.50;;;37.72;;
58864;SDS011;45702;52.982;6.658;2024-02-28T00:26:53;303.73;;;41.58;;
58864;SDS011;45702;52.982;6.658;2024-02-28T00:29:19;333.92;;;39.22;;
58864;SDS011;45702;52.982;6.658;2024-02-28T00:31:45;334.80;;;41.72;;
58864;SDS011;45702;52.982;6.658;2024-02-28T00:34:12;381.42;;;42.40;;
58864;SDS011;45702;52.982;6.658;2024-02-28T00:36:38;423.60;;;42.63;;
58864;SDS011;45702;52.982;6.658;2024-02-28T00:39:04;289.50;;;39.97;;
58864;SDS011;45702;52.982;6.658;2024-02-28T00:41:30;447.25;;;43.88;;
58864;SDS011;45702;52.982;6.658;2024-02-28T00:43:56;455.38;;;43.58;;
58864;SDS011;45702;52.982;6.658;2024-02-28T00:46:22;428.58;;;42.45;;
58864;SDS011;45702;52.982;6.658;2024-02-28T00:48:49;357.08;;;43.58;;
58864;SDS011;45702;52.982;6.658;2024-02-28T00:51:15;360.60;;;43.67;;
58864;SDS011;45702;52.982;6.658;2024-02-28T00:53:41;341.08;;;45.60;;
58864;SDS011;45702;52.982;6.658;2024-02-28T00:56:08;366.95;;;45.60;;
58864;SDS011;45702;52.982;6.658;2024-02-28T00:58:34;293.80;;;44.08;;
58864;SDS011;45702;52.982;6.658;2024-02-28T01:01:00;401.13;;;46.28;;
58864;SDS011;45702;52.982;6.658;2024-02-28T01:03:26;405.45;;;43.67;;
58864;SDS011;45702;52.982;6.658;2024-02-28T01:05:52;341.40;;;43.70;;
58864;SDS011;45702;52.982;6.658;2024-02-28T01:08:18;372.80;;;43.60;;
58864;SDS011;45702;52.982;6.658;2024-02-28T01:10:45;351.02;;;44.08;;
58864;SDS011;45702;52.982;6.658;2024-02-28T01:13:11;331.65;;;44.92;;
58864;SDS011;45702;52.982;6.658;2024-02-28T01:15:40;320.52;;;43.78;;
58864;SDS011;45702;52.982;6.658;2024-02-28T01:18:07;310.83;;;44.08;;
58864;SDS011;45702;52.982;6.658;2024-02-28T01:20:33;376.27;;;46.22;;
58864;SDS011;45702;52.982;6.658;2024-02-28T01:22:59;357.10;;;46.75;;
58864;SDS011;45702;52.982;6.658;2024-02-28T01:25:25;433.73;;;47.00;;
58864;SDS011;45702;52.982;6.658;2024-02-28T01:27:51;290.73;;;46.88;;
58864;SDS011;45702;52.982;6.658;2024-02-28T01:30:17;355.50;;;47.22;;
58864;SDS011;45702;52.982;6.658;2024-02-28T01:32:44;231.85;;;39.42;;
58864;SDS011;45702;52.982;6.658;2024-02-28T01:35:11;250.70;;;41.22;;
58864;SDS011;45702;52.982;6.658;2024-02-28T01:37:37;275.70;;;43.75;;
58864;SDS011;45702;52.982;6.658;2024-02-28T01:40:03;276.73;;;44.28;;
58864;SDS011;45702;52.982;6.658;2024-02-28T01:42:30;292.05;;;42.90;;
58864;SDS011;45702;52.982;6.658;2024-02-28T01:44:56;230.40;;;39.83;;
58864;SDS011;45702;52.982;6.658;2024-02-28T01:47:22;243.02;;;40.90;;
58864;SDS011;45702;52.982;6.658;2024-02-28T01:49:48;229.20;;;42.55;;
58864;SDS011;45702;52.982;6.658;2024-02-28T01:52:16;229.75;;;42.00;;
58864;SDS011;45702;52.982;6.658;2024-02-28T01:54:42;219.95;;;42.83;;
58864;SDS011;45702;52.982;6.658;2024-02-28T01:57:09;215.52;;;40.40;;
58864;SDS011;45702;52.982;6.658;2024-02-28T01:59:35;213.35;;;40.78;;
58864;SDS011;45702;52.982;6.658;2024-02-28T02:02:02;220.18;;;42.20;;
58864;SDS011;45702;52.982;6.658;2024-02-28T02:04:28;230.65;;;43.53;;
58864;SDS011;45702;52.982;6.658;2024-02-28T02:06:54;240.10;;;37.65;;
58864;SDS011;45702;52.982;6.658;2024-02-28T02:09:23;230.65;;;43.53;;
58864;SDS011;45702;52.982;6.658;2024-02-28T02:11:49;212.32;;;39.92;;
58864;SDS011;45702;52.982;6.658;2024-02-28T02:14:15;195.15;;;38.97;;
58864;SDS011;45702;52.982;6.658;2024-02-28T02:16:41;194.88;;;38.22;;
58864;SDS011;45702;52.982;6.658;2024-02-28T02:19:11;224.77;;;40.15;;
58864;SDS011;45702;52.982;6.658;2024-02-28T02:21:40;200.70;;;39.08;;
58864;SDS011;45702;52.982;6.658;2024-02-28T02:24:07;186.60;;;39.80;;
58864;SDS011;45702;52.982;6.658;2024-02-28T02:26:33;181.23;;;37.53;;
58864;SDS011;45702;52.982;6.658;2024-02-28T02:28:59;194.18;;;39.95;;
58864;SDS011;45702;52.982;6.658;2024-02-28T02:31:25;174.85;;;38.78;;
58864;SDS011;45702;52.982;6.658;2024-02-28T02:33:51;168.68;;;36.10;;
58864;SDS011;45702;52.982;6.658;2024-02-28T02:36:17;191.82;;;41.17;;
58864;SDS011;45702;52.982;6.658;2024-02-28T02:38:43;186.30;;;39.58;;
58864;SDS011;45702;52.982;6.658;2024-02-28T02:41:09;192.40;;;39.97;;
58864;SDS011;45702;52.982;6.658;2024-02-28T02:43:35;200.48;;;40.83;;
58864;SDS011;45702;52.982;6.658;2024-02-28T02:46:01;183.77;;;38.83;;
58864;SDS011;45702;52.982;6.658;2024-02-28T02:48:27;197.13;;;39.17;;
58864;SDS011;45702;52.982;6.658;2024-02-28T02:50:53;197.73;;;39.88;;
58864;SDS011;45702;52.982;6.658;2024-02-28T02:53:19;209.05;;;42.25;;
58864;SDS011;45702;52.982;6.658;2024-02-28T02:55:46;221.38;;;43.10;;
58864;SDS011;45702;52.982;6.658;2024-02-28T02:58:12;214.73;;;42.88;;
58864;SDS011;45702;52.982;6.658;2024-02-28T03:00:38;215.25;;;41.40;;
58864;SDS011;45702;52.982;6.658;2024-02-28T03:03:04;196.70;;;39.38;;
58864;SDS011;45702;52.982;6.658;2024-02-28T03:05:30;216.07;;;41.65;;
58864;SDS011;45702;52.982;6.658;2024-02-28T03:07:57;207.23;;;39.47;;
58864;SDS011;45702;52.982;6.658;2024-02-28T03:10:23;189.52;;;39.45;;
58864;SDS011;45702;52.982;6.658;2024-02-28T03:12:49;192.00;;;41.13;;
58864;SDS011;45702;52.982;6.658;2024-02-28T03:15:15;198.90;;;42.72;;
58864;SDS011;45702;52.982;6.658;2024-02-28T03:17:41;234.40;;;42.95;;
58864;SDS011;45702;52.982;6.658;2024-02-28T03:20:08;203.73;;;43.53;;
58864;SDS011;45702;52.982;6.658;2024-02-28T03:22:34;221.20;;;44.33;;
58864;SDS011;45702;52.982;6.658;2024-02-28T03:25:00;201.25;;;43.47;;
58864;SDS011;45702;52.982;6.658;2024-02-28T03:27:26;195.45;;;41.55;;
58864;SDS011;45702;52.982;6.658;2024-02-28T03:29:52;181.88;;;40.17;;
58864;SDS011;45702;52.982;6.658;2024-02-28T03:32:18;216.57;;;43.88;;
58864;SDS011;45702;52.982;6.658;2024-02-28T03:34:44;210.23;;;43.20;;
58864;SDS011;45702;52.982;6.658;2024-02-28T03:37:10;195.68;;;39.15;;
58864;SDS011;45702;52.982;6.658;2024-02-28T03:39:36;192.02;;;40.40;;
58864;SDS011;45702;52.982;6.658;2024-02-28T03:42:02;214.60;;;42.60;;
58864;SDS011;45702;52.982;6.658;2024-02-28T03:44:28;189.93;;;40.35;;
58864;SDS011;45702;52.982;6.658;2024-02-28T03:46:54;210.05;;;41.10;;
58864;SDS011;45702;52.982;6.658;2024-02-28T03:49:20;232.43;;;43.28;;
58864;SDS011;45702;52.982;6.658;2024-02-28T03:51:46;202.98;;;41.63;;
58864;SDS011;45702;52.982;6.658;2024-02-28T03:54:12;207.68;;;43.45;;
58864;SDS011;45702;52.982;6.658;2024-02-28T03:56:39;194.02;;;43.35;;
58864;SDS011;45702;52.982;6.658;2024-02-28T03:59:05;211.18;;;41.63;;
58864;SDS011;45702;52.982;6.658;2024-02-28T04:01:31;207.75;;;42.28;;
58864;SDS011;45702;52.982;6.658;2024-02-28T04:03:57;226.02;;;44.55;;
58864;SDS011;45702;52.982;6.658;2024-02-28T04:06:23;203.55;;;41.83;;
58864;SDS011;45702;52.982;6.658;2024-02-28T04:08:49;224.02;;;43.95;;
58864;SDS011;45702;52.982;6.658;2024-02-28T04:11:15;203.68;;;42.10;;
58864;SDS011;45702;52.982;6.658;2024-02-28T04:13:41;185.20;;;40.97;;
58864;SDS011;45702;52.982;6.658;2024-02-28T04:16:08;192.90;;;41.78;;
58864;SDS011;45702;52.982;6.658;2024-02-28T04:18:34;185.05;;;35.67;;
58864;SDS011;45702;52.982;6.658;2024-02-28T04:21:00;191.05;;;39.97;;
58864;SDS011;45702;52.982;6.658;2024-02-28T04:23:26;197.95;;;41.15;;
58864;SDS011;45702;52.982;6.658;2024-02-28T04:25:52;213.48;;;43.33;;
58864;SDS011;45702;52.982;6.658;2024-02-28T04:28:18;204.93;;;42.60;;
58864;SDS011;45702;52.982;6.658;2024-02-28T04:30:45;164.20;;;36.22;;
58864;SDS011;45702;52.982;6.658;2024-02-28T04:33:11;188.95;;;42.15;;
58864;SDS011;45702;52.982;6.658;2024-02-28T04:35:37;187.50;;;42.17;;
58864;SDS011;45702;52.982;6.658;2024-02-28T04:38:03;187.82;;;41.45;;
58864;SDS011;45702;52.982;6.658;2024-02-28T04:40:29;185.80;;;41.10;;
58864;SDS011;45702;52.982;6.658;2024-02-28T04:42:55;169.68;;;38.78;;
58864;SDS011;45702;52.982;6.658;2024-02-28T04:45:21;178.23;;;41.60;;
58864;SDS011;45702;52.982;6.658;2024-02-28T04:47:47;193.55;;;41.25;;
58864;SDS011;45702;52.982;6.658;2024-02-28T04:50:13;185.70;;;41.38;;
58864;SDS011;45702;52.982;6.658;2024-02-28T04:52:39;172.27;;;40.67;;
58864;SDS011;45702;52.982;6.658;2024-02-28T04:55:05;160.30;;;37.75;;
58864;SDS011;45702;52.982;6.658;2024-02-28T04:57:31;185.35;;;39.50;;
58864;SDS011;45702;52.982;6.658;2024-02-28T04:59:58;183.13;;;42.72;;
58864;SDS011;45702;52.982;6.658;2024-02-28T05:02:24;182.65;;;42.13;;
58864;SDS011;45702;52.982;6.658;2024-02-28T05:04:51;194.57;;;41.65;;
58864;SDS011;45702;52.982;6.658;2024-02-28T05:07:17;182.82;;;41.17;;
58864;SDS011;45702;52.982;6.658;2024-02-28T05:09:43;189.43;;;43.28;;
58864;SDS011;45702;52.982;6.658;2024-02-28T05:12:09;180.40;;;42.50;;
58864;SDS011;45702;52.982;6.658;2024-02-28T05:14:37;180.73;;;42.67;;
58864;SDS011;45702;52.982;6.658;2024-02-28T05:17:03;171.23;;;39.28;;
58864;SDS011;45702;52.982;6.658;2024-02-28T05:19:29;178.93;;;41.22;;
58864;SDS011;45702;52.982;6.658;2024-02-28T05:21:56;184.02;;;43.38;;
58864;SDS011;45702;52.982;6.658;2024-02-28T05:24:22;172.45;;;39.83;;
58864;SDS011;45702;52.982;6.658;2024-02-28T05:26:48;177.93;;;42.15;;
58864;SDS011;45702;52.982;6.658;2024-02-28T05:29:14;182.13;;;42.47;;
58864;SDS011;45702;52.982;6.658;2024-02-28T05:31:40;179.00;;;41.00;;
58864;SDS011;45702;52.982;6.658;2024-02-28T05:34:06;185.50;;;43.03;;
58864;SDS011;45702;52.982;6.658;2024-02-28T05:36:32;181.73;;;43.00;;
58864;SDS011;45702;52.982;6.658;2024-02-28T05:38:59;186.45;;;41.92;;
58864;SDS011;45702;52.982;6.658;2024-02-28T05:41:26;181.93;;;41.55;;
58864;SDS011;45702;52.982;6.658;2024-02-28T05:43:52;190.25;;;43.65;;
58864;SDS011;45702;52.982;6.658;2024-02-28T05:46:18;198.52;;;44.95;;
58864;SDS011;45702;52.982;6.658;2024-02-28T05:48:47;187.48;;;42.53;;
58864;SDS011;45702;52.982;6.658;2024-02-28T05:51:13;200.57;;;44.65;;
58864;SDS011;45702;52.982;6.658;2024-02-28T05:53:40;196.57;;;45.72;;
58864;SDS011;45702;52.982;6.658;2024-02-28T05:56:07;183.93;;;42.57;;
58864;SDS011;45702;52.982;6.658;2024-02-28T05:58:38;191.10;;;45.78;;
58864;SDS011;45702;52.982;6.658;2024-02-28T06:01:05;186.13;;;45.88;;
58864;SDS011;45702;52.982;6.658;2024-02-28T06:03:32;191.52;;;45.95;;
58864;SDS011;45702;52.982;6.658;2024-02-28T06:05:59;188.90;;;45.40;;
58864;SDS011;45702;52.982;6.658;2024-02-28T06:08:25;199.50;;;46.75;;
58864;SDS011;45702;52.982;6.658;2024-02-28T06:10:51;189.75;;;44.80;;
58864;SDS011;45702;52.982;6.658;2024-02-28T06:13:17;183.68;;;45.55;;
58864;SDS011;45702;52.982;6.658;2024-02-28T06:15:43;189.20;;;43.70;;
58864;SDS011;45702;52.982;6.658;2024-02-28T06:18:10;156.68;;;38.50;;
58864;SDS011;45702;52.982;6.658;2024-02-28T06:20:36;180.25;;;43.92;;
58864;SDS011;45702;52.982;6.658;2024-02-28T06:23:03;181.48;;;45.38;;
58864;SDS011;45702;52.982;6.658;2024-02-28T06:25:29;181.90;;;45.38;;
58864;SDS011;45702;52.982;6.658;2024-02-28T06:27:55;151.85;;;38.05;;
58864;SDS011;45702;52.982;6.658;2024-02-28T06:30:22;179.88;;;45.67;;
58864;SDS011;45702;52.982;6.658;2024-02-28T06:32:48;190.52;;;45.58;;
58864;SDS011;45702;52.982;6.658;2024-02-28T06:35:14;186.10;;;45.47;;
58864;SDS011;45702;52.982;6.658;2024-02-28T06:37:41;191.25;;;46.50;;
58864;SDS011;45702;52.982;6.658;2024-02-28T06:40:09;184.02;;;44.65;;
58864;SDS011;45702;52.982;6.658;2024-02-28T06:42:35;193.52;;;46.22;;
58864;SDS011;45702;52.982;6.658;2024-02-28T06:45:04;177.23;;;42.88;;
58864;SDS011;45702;52.982;6.658;2024-02-28T06:47:31;185.27;;;47.85;;
58864;SDS011;45702;52.982;6.658;2024-02-28T06:49:58;158.52;;;40.97;;
58864;SDS011;45702;52.982;6.658;2024-02-28T06:52:24;183.75;;;44.63;;
58864;SDS011;45702;52.982;6.658;2024-02-28T06:54:50;175.38;;;45.45;;
58864;SDS011;45702;52.982;6.658;2024-02-28T06:57:16;179.82;;;45.47;;
58864;SDS011;45702;52.982;6.658;2024-02-28T06:59:42;170.68;;;43.60;;
58864;SDS011;45702;52.982;6.658;2024-02-28T07:02:08;158.27;;;41.53;;
58864;SDS011;45702;52.982;6.658;2024-02-28T07:04:34;173.43;;;44.83;;
58864;SDS011;45702;52.982;6.658;2024-02-28T07:07:01;173.88;;;46.42;;
58864;SDS011;45702;52.982;6.658;2024-02-28T07:09:27;173.57;;;46.75;;
58864;SDS011;45702;52.982;6.658;2024-02-28T07:11:56;176.13;;;46.25;;
58864;SDS011;45702;52.982;6.658;2024-02-28T07:14:22;174.80;;;45.35;;
58864;SDS011;45702;52.982;6.658;2024-02-28T07:16:48;179.45;;;47.30;;
58864;SDS011;45702;52.982;6.658;2024-02-28T07:19:14;198.00;;;47.78;;
58864;SDS011;45702;52.982;6.658;2024-02-28T07:21:40;172.00;;;45.78;;
58864;SDS011;45702;52.982;6.658;2024-02-28T07:24:07;162.68;;;42.50;;
58864;SDS011;45702;52.982;6.658;2024-02-28T07:26:33;173.07;;;45.00;;
58864;SDS011;45702;52.982;6.658;2024-02-28T07:28:59;177.88;;;45.20;;
58864;SDS011;45702;52.982;6.658;2024-02-28T07:31:25;192.10;;;47.20;;
58864;SDS011;45702;52.982;6.658;2024-02-28T07:33:51;188.15;;;46.90;;
58864;SDS011;45702;52.982;6.658;2024-02-28T07:36:17;175.45;;;45.15;;
58864;SDS011;45702;52.982;6.658;2024-02-28T07:38:43;175.20;;;43.55;;
58864;SDS011;45702;52.982;6.658;2024-02-28T07:41:09;169.57;;;43.03;;
58864;SDS011;45702;52.982;6.658;2024-02-28T07:43:35;176.07;;;46.63;;
58864;SDS011;45702;52.982;6.658;2024-02-28T07:46:06;186.60;;;46.17;;
58864;SDS011;45702;52.982;6.658;2024-02-28T07:48:33;179.23;;;45.03;;
58864;SDS011;45702;52.982;6.658;2024-02-28T07:50:59;183.15;;;45.28;;
58864;SDS011;45702;52.982;6.658;2024-02-28T07:53:26;183.40;;;47.30;;
58864;SDS011;45702;52.982;6.658;2024-02-28T07:55:52;180.35;;;46.25;;
58864;SDS011;45702;52.982;6.658;2024-02-28T07:58:18;173.95;;;45.85;;
58864;SDS011;45702;52.982;6.658;2024-02-28T08:00:44;179.77;;;45.78;;
58864;SDS011;45702;52.982;6.658;2024-02-28T08:03:10;177.75;;;46.08;;
58864;SDS011;45702;52.982;6.658;2024-02-28T08:05:36;183.60;;;47.75;;
58864;SDS011;45702;52.982;6.658;2024-02-28T08:08:07;169.57;;;46.20;;
58864;SDS011;45702;52.982;6.658;2024-02-28T08:10:33;169.48;;;45.15;;
58864;SDS011;45702;52.982;6.658;2024-02-28T08:13:09;176.25;;;45.35;;
58864;SDS011;45702;52.982;6.658;2024-02-28T08:15:35;183.82;;;45.47;;
58864;SDS011;45702;52.982;6.658;2024-02-28T08:18:01;179.65;;;46.42;;
58864;SDS011;45702;52.982;6.658;2024-02-28T08:20:27;173.90;;;46.75;;
58864;SDS011;45702;52.982;6.658;2024-02-28T08:22:53;175.70;;;46.95;;
58864;SDS011;45702;52.982;6.658;2024-02-28T08:25:22;176.77;;;47.92;;
58864;SDS011;45702;52.982;6.658;2024-02-28T08:27:48;178.40;;;49.03;;
58864;SDS011;45702;52.982;6.658;2024-02-28T08:30:14;184.20;;;49.33;;
58864;SDS011;45702;52.982;6.658;2024-02-28T08:32:41;180.10;;;47.85;;
58864;SDS011;45702;52.982;6.658;2024-02-28T08:35:08;180.05;;;48.95;;
58864;SDS011;45702;52.982;6.658;2024-02-28T08:37:35;178.52;;;48.85;;
58864;SDS011;45702;52.982;6.658;2024-02-28T08:40:01;183.90;;;50.67;;
58864;SDS011;45702;52.982;6.658;2024-02-28T08:42:28;187.40;;;48.67;;
58864;SDS011;45702;52.982;6.658;2024-02-28T08:44:54;185.27;;;50.03;;
58864;SDS011;45702;52.982;6.658;2024-02-28T08:47:23;144.88;;;38.67;;
58864;SDS011;45702;52.982;6.658;2024-02-28T08:49:49;185.82;;;50.00;;
58864;SDS011;45702;52.982;6.658;2024-02-28T08:52:15;177.75;;;48.85;;
58864;SDS011;45702;52.982;6.658;2024-02-28T08:54:41;171.82;;;45.13;;
58864;SDS011;45702;52.982;6.658;2024-02-28T08:57:07;176.07;;;47.35;;
58864;SDS011;45702;52.982;6.658;2024-02-28T08:59:33;187.82;;;49.92;;
58864;SDS011;45702;52.982;6.658;2024-02-28T09:02:00;175.40;;;49.95;;
58864;SDS011;45702;52.982;6.658;2024-02-28T09:04:26;183.77;;;49.08;;
58864;SDS011;45702;52.982;6.658;2024-02-28T09:06:52;177.90;;;50.45;;
58864;SDS011;45702;52.982;6.658;2024-02-28T09:09:18;180.15;;;49.00;;
58864;SDS011;45702;52.982;6.658;2024-02-28T09:11:44;169.07;;;47.40;;
58864;SDS011;45702;52.982;6.658;2024-02-28T09:14:10;180.70;;;49.97;;
58864;SDS011;45702;52.982;6.658;2024-02-28T09:16:36;185.70;;;50.03;;
58864;SDS011;45702;52.982;6.658;2024-02-28T09:19:03;180.88;;;50.47;;
58864;SDS011;45702;52.982;6.658;2024-02-28T09:21:29;171.25;;;46.13;;
58864;SDS011;45702;52.982;6.658;2024-02-28T09:23:55;177.48;;;51.53;;
58864;SDS011;45702;52.982;6.658;2024-02-28T09:26:21;173.10;;;49.97;;
58864;SDS011;45702;52.982;6.658;2024-02-28T09:28:47;167.25;;;48.47;;
58864;SDS011;45702;52.982;6.658;2024-02-28T09:31:14;172.50;;;49.28;;
58864;SDS011;45702;52.982;6.658;2024-02-28T09:33:43;169.32;;;47.75;;
58864;SDS011;45702;52.982;6.658;2024-02-28T09:36:10;174.55;;;48.75;;
58864;SDS011;45702;52.982;6.658;2024-02-28T09:38:37;170.98;;;49.33;;
58864;SDS011;45702;52.982;6.658;2024-02-28T09:41:03;172.07;;;48.97;;
58864;SDS011;45702;52.982;6.658;2024-02-28T09:43:30;176.60;;;50.58;;
58864;SDS011;45702;52.982;6.658;2024-02-28T09:45:58;178.70;;;50.38;;
58864;SDS011;45702;52.982;6.658;2024-02-28T09:48:26;177.93;;;49.92;;
58864;SDS011;45702;52.982;6.658;2024-02-28T09:51:02;176.50;;;49.35;;
58864;SDS011;45702;52.982;6.658;2024-02-28T09:53:29;178.68;;;48.38;;
58864;SDS011;45702;52.982;6.658;2024-02-28T09:55:55;185.70;;;50.50;;
58864;SDS011;45702;52.982;6.658;2024-02-28T09:58:21;172.32;;;50.33;;
58864;SDS011;45702;52.982;6.658;2024-02-28T10:00:49;174.52;;;50.25;;
58864;SDS011;45702;52.982;6.658;2024-02-28T10:03:18;178.07;;;47.97;;
58864;SDS011;45702;52.982;6.658;2024-02-28T10:05:48;157.35;;;46.75;;
58864;SDS011;45702;52.982;6.658;2024-02-28T10:08:15;160.23;;;49.17;;
58864;SDS011;45702;52.982;6.658;2024-02-28T10:10:45;161.88;;;48.83;;
58864;SDS011;45702;52.982;6.658;2024-02-28T10:13:12;149.35;;;45.10;;
58864;SDS011;45702;52.982;6.658;2024-02-28T10:15:38;148.35;;;45.13;;
58864;SDS011;45702;52.982;6.658;2024-02-28T10:18:04;157.85;;;49.65;;
58864;SDS011;45702;52.982;6.658;2024-02-28T10:20:31;153.05;;;47.95;;
58864;SDS011;45702;52.982;6.658;2024-02-28T10:22:57;158.52;;;47.08;;
58864;SDS011;45702;52.982;6.658;2024-02-28T10:25:23;158.48;;;49.42;;
58864;SDS011;45702;52.982;6.658;2024-02-28T10:27:51;152.30;;;48.20;;
58864;SDS011;45702;52.982;6.658;2024-02-28T10:30:18;161.57;;;50.90;;
58864;SDS011;45702;52.982;6.658;2024-02-28T10:32:48;160.10;;;49.20;;
58864;SDS011;45702;52.982;6.658;2024-02-28T10:35:16;125.15;;;39.13;;
58864;SDS011;45702;52.982;6.658;2024-02-28T10:37:44;145.90;;;46.53;;
58864;SDS011;45702;52.982;6.658;2024-02-28T10:40:11;153.60;;;48.88;;
58864;SDS011;45702;52.982;6.658;2024-02-28T10:42:41;128.57;;;39.70;;
58864;SDS011;45702;52.982;6.658;2024-02-28T10:45:08;157.63;;;49.55;;
58864;SDS011;45702;52.982;6.658;2024-02-28T10:47:37;161.02;;;49.13;;
58864;SDS011;45702;52.982;6.658;2024-02-28T10:50:04;166.98;;;51.22;;
58864;SDS011;45702;52.982;6.658;2024-02-28T10:52:30;158.18;;;51.70;;
58864;SDS011;45702;52.982;6.658;2024-02-28T10:54:58;159.02;;;52.22;;
58864;SDS011;45702;52.982;6.658;2024-02-28T10:57:25;150.77;;;47.13;;
58864;SDS011;45702;52.982;6.658;2024-02-28T10:59:52;149.60;;;48.65;;
58864;SDS011;45702;52.982;6.658;2024-02-28T11:02:19;147.52;;;48.13;;
58864;SDS011;45702;52.982;6.658;2024-02-28T11:04:46;137.88;;;47.65;;
58864;SDS011;45702;52.982;6.658;2024-02-28T11:07:18;139.30;;;48.33;;
58864;SDS011;45702;52.982;6.658;2024-02-28T11:09:44;132.90;;;42.80;;
58864;SDS011;45702;52.982;6.658;2024-02-28T11:12:24;139.32;;;46.33;;
58864;SDS011;45702;52.982;6.658;2024-02-28T11:15:01;137.75;;;47.78;;
58864;SDS011;45702;52.982;6.658;2024-02-28T11:17:28;147.68;;;49.08;;
58864;SDS011;45702;52.982;6.658;2024-02-28T11:19:54;135.43;;;46.60;;
58864;SDS011;45702;52.982;6.658;2024-02-28T11:22:20;131.63;;;48.30;;
58864;SDS011;45702;52.982;6.658;2024-02-28T11:24:47;126.25;;;44.03;;
58864;SDS011;45702;52.982;6.658;2024-02-28T11:27:14;123.32;;;43.67;;
58864;SDS011;45702;52.982;6.658;2024-02-28T11:29:41;128.88;;;46.38;;
58864;SDS011;45702;52.982;6.658;2024-02-28T11:32:07;133.10;;;48.17;;
58864;SDS011;45702;52.982;6.658;2024-02-28T11:34:35;132.18;;;47.15;;
58864;SDS011;45702;52.982;6.658;2024-02-28T11:37:02;125.15;;;42.55;;
58864;SDS011;45702;52.982;6.658;2024-02-28T11:39:28;137.55;;;48.28;;
58864;SDS011;45702;52.982;6.658;2024-02-28T11:42:08;139.38;;;48.83;;
58864;SDS011;45702;52.982;6.658;2024-02-28T11:44:34;121.85;;;47.67;;
58864;SDS011;45702;52.982;6.658;2024-02-28T11:47:00;125.07;;;44.10;;
58864;SDS011;45702;52.982;6.658;2024-02-28T11:49:26;127.15;;;46.80;;
58864;SDS011;45702;52.982;6.658;2024-02-28T11:51:52;129.57;;;46.72;;
58864;SDS011;45702;52.982;6.658;2024-02-28T11:54:18;134.35;;;47.95;;
58864;SDS011;45702;52.982;6.658;2024-02-28T11:56:44;122.78;;;45.83;;
58864;SDS011;45702;52.982;6.658;2024-02-28T11:59:13;118.97;;;45.50;;
58864;SDS011;45702;52.982;6.658;2024-02-28T12:01:43;121.78;;;44.78;;
58864;SDS011;45702;52.982;6.658;2024-02-28T12:04:09;126.60;;;46.47;;
58864;SDS011;45702;52.982;6.658;2024-02-28T12:06:39;124.28;;;47.75;;
58864;SDS011;45702;52.982;6.658;2024-02-28T12:09:09;126.57;;;47.10;;
58864;SDS011;45702;52.982;6.658;2024-02-28T12:11:36;126.00;;;48.63;;
58864;SDS011;45702;52.982;6.658;2024-02-28T12:14:03;124.85;;;47.00;;
58864;SDS011;45702;52.982;6.658;2024-02-28T12:16:30;129.65;;;47.83;;
58864;SDS011;45702;52.982;6.658;2024-02-28T12:18:56;127.95;;;48.13;;
58864;SDS011;45702;52.982;6.658;2024-02-28T12:21:22;116.38;;;43.80;;
58864;SDS011;45702;52.982;6.658;2024-02-28T12:23:49;116.55;;;47.20;;
58864;SDS011;45702;52.982;6.658;2024-02-28T12:26:18;124.97;;;47.13;;
58864;SDS011;45702;52.982;6.658;2024-02-28T12:28:45;122.50;;;48.20;;
58864;SDS011;45702;52.982;6.658;2024-02-28T12:31:11;109.47;;;42.58;;
58864;SDS011;45702;52.982;6.658;2024-02-28T12:33:38;121.20;;;47.78;;
58864;SDS011;45702;52.982;6.658;2024-02-28T12:36:04;121.57;;;47.80;;
58864;SDS011;45702;52.982;6.658;2024-02-28T12:38:30;112.68;;;45.78;;
58864;SDS011;45702;52.982;6.658;2024-02-28T12:40:56;112.82;;;45.72;;
58864;SDS011;45702;52.982;6.658;2024-02-28T12:43:23;108.72;;;45.38;;
58864;SDS011;45702;52.982;6.658;2024-02-28T12:45:50;101.28;;;40.75;;
58864;SDS011;45702;52.982;6.658;2024-02-28T12:48:16;111.65;;;46.83;;
58864;SDS011;45702;52.982;6.658;2024-02-28T12:50:42;108.32;;;44.38;;
58864;SDS011;45702;52.982;6.658;2024-02-28T12:53:08;102.72;;;42.92;;
58864;SDS011;45702;52.982;6.658;2024-02-28T12:55:34;106.35;;;42.63;;
58864;SDS011;45702;52.982;6.658;2024-02-28T12:58:01;108.07;;;45.30;;
58864;SDS011;45702;52.982;6.658;2024-02-28T13:00:30;107.57;;;44.00;;
58864;SDS011;45702;52.982;6.658;2024-02-28T13:02:56;115.60;;;46.65;;
58864;SDS011;45702;52.982;6.658;2024-02-28T13:05:22;115.63;;;47.63;;
58864;SDS011;45702;52.982;6.658;2024-02-28T13:07:48;111.97;;;45.78;;
58864;SDS011;45702;52.982;6.658;2024-02-28T13:10:14;111.88;;;47.08;;
58864;SDS011;45702;52.982;6.658;2024-02-28T13:12:40;111.80;;;47.30;;
58864;SDS011;45702;52.982;6.658;2024-02-28T13:15:06;112.20;;;47.28;;
58864;SDS011;45702;52.982;6.658;2024-02-28T13:17:33;109.70;;;46.28;;
58864;SDS011;45702;52.982;6.658;2024-02-28T13:19:59;114.65;;;47.05;;
58864;SDS011;45702;52.982;6.658;2024-02-28T13:22:25;110.57;;;47.10;;
58864;SDS011;45702;52.982;6.658;2024-02-28T13:24:51;120.82;;;49.55;;
58864;SDS011;45702;52.982;6.658;2024-02-28T13:27:17;111.85;;;48.78;;
58864;SDS011;45702;52.982;6.658;2024-02-28T13:29:43;121.82;;;49.90;;
58864;SDS011;45702;52.982;6.658;2024-02-28T13:32:09;105.82;;;44.47;;
58864;SDS011;45702;52.982;6.658;2024-02-28T13:34:35;123.22;;;50.88;;
58864;SDS011;45702;52.982;6.658;2024-02-28T13:37:01;119.38;;;49.70;;
58864;SDS011;45702;52.982;6.658;2024-02-28T13:39:28;122.05;;;50.78;;
58864;SDS011;45702;52.982;6.658;2024-02-28T13:41:54;130.25;;;51.90;;
58864;SDS011;45702;52.982;6.658;2024-02-28T13:44:21;127.25;;;52.80;;
58864;SDS011;45702;52.982;6.658;2024-02-28T13:46:47;131.63;;;51.30;;
58864;SDS011;45702;52.982;6.658;2024-02-28T13:49:13;119.93;;;50.30;;
58864;SDS011;45702;52.982;6.658;2024-02-28T13:51:41;132.93;;;52.65;;
58864;SDS011;45702;52.982;6.658;2024-02-28T13:54:08;124.72;;;50.20;;
58864;SDS011;45702;52.982;6.658;2024-02-28T13:56:34;128.23;;;50.90;;
58864;SDS011;45702;52.982;6.658;2024-02-28T13:59:00;126.45;;;46.63;;
58864;SDS011;45702;52.982;6.658;2024-02-28T14:01:26;143.63;;;53.17;;
58864;SDS011;45702;52.982;6.658;2024-02-28T14:03:53;131.45;;;52.95;;